Time;durP1;ratioP1;P1;durP2;ratioP2;P2;SDS_P1;SDS_P2;PMS_P1;PMS_P2;Temp;Humidity;BMP_temperature;BMP_pressure;BME280_temperature;BME280_humidity;BME280_pressure;Samples;Min_cycle;Max_cycle;Signal;HPM_P1;HPM_P2
2021/03/30 00:00:38;;;;;;;3.83;1.52;;;;;;;13.01;72.20;101849.69;5064729;28;20045;-50
2021/03/30 00:03:05;;;;;;;5.55;1.83;;;;;;;12.99;72.23;101841.72;5072564;28;20048;-49
2021/03/30 00:05:31;;;;;;;5.53;1.75;;;;;;;12.96;72.10;101836.00;5070828;28;20086;-48
2021/03/30 00:07:57;;;;;;;6.35;1.27;;;;;;;12.96;72.52;101838.78;5071015;28;20064;-47
2021/03/30 00:10:31;;;;;;;3.22;1.08;;;;;;;12.94;72.52;101844.69;5071475;28;20056;-48
2021/03/30 00:12:57;;;;;;;7.70;1.40;;;;;;;12.95;72.29;101848.25;5072063;28;20044;-49
2021/03/30 00:15:23;;;;;;;3.08;1.30;;;;;;;12.94;72.46;101841.06;5071983;28;20044;-50
2021/03/30 00:17:50;;;;;;;12.45;2.70;;;;;;;12.95;72.38;101851.03;5072065;28;20041;-49
2021/03/30 00:20:16;;;;;;;2.72;1.02;;;;;;;12.93;72.27;101856.94;5071576;28;20037;-50
2021/03/30 00:22:43;;;;;;;4.18;1.08;;;;;;;12.92;72.34;101857.28;5052521;28;20095;-49
2021/03/30 00:25:11;;;;;;;3.45;0.95;;;;;;;12.88;72.63;101848.78;5071186;28;20136;-49
2021/03/30 00:27:38;;;;;;;6.57;1.20;;;;;;;12.89;72.58;101867.09;5068053;28;20449;-48
2021/03/30 00:30:07;;;;;;;5.38;0.90;;;;;;;12.92;72.34;101857.28;5071494;28;20067;-50
2021/03/30 00:32:33;;;;;;;5.32;0.85;;;;;;;12.90;72.45;101854.81;5068936;28;20139;-50
2021/03/30 00:34:59;;;;;;;4.90;1.10;;;;;;;12.93;72.24;101858.91;5071322;28;20080;-50
2021/03/30 00:37:25;;;;;;;5.35;1.20;;;;;;;12.97;72.26;101860.69;5071889;28;20072;-49
2021/03/30 00:39:52;;;;;;;1.70;1.02;;;;;;;12.92;72.37;101849.72;5071841;28;20076;-49
2021/03/30 00:42:21;;;;;;;8.63;1.40;;;;;;;12.87;72.47;101849.13;5071190;28;20135;-52
2021/03/30 00:44:48;;;;;;;7.93;2.05;;;;;;;12.84;72.65;101845.84;5071716;28;20489;-49
2021/03/30 00:47:16;;;;;;;5.47;1.08;;;;;;;12.83;72.46;101863.69;5071635;28;20436;-49
2021/03/30 00:49:43;;;;;;;3.50;1.15;;;;;;;12.81;72.55;101854.84;5067107;28;20512;-49
2021/03/30 00:52:09;;;;;;;3.17;1.05;;;;;;;12.79;72.39;101854.38;5067086;28;20268;-48
2021/03/30 00:54:37;;;;;;;5.32;0.90;;;;;;;12.77;72.56;101856.69;5071528;28;20518;-48
2021/03/30 00:57:06;;;;;;;8.10;1.60;;;;;;;12.78;72.60;101861.09;5070773;28;20059;-50
2021/03/30 00:59:32;;;;;;;3.10;1.27;;;;;;;12.79;72.56;101857.16;5072263;28;20419;-50
2021/03/30 01:02:00;;;;;;;4.43;1.00;;;;;;;12.80;72.65;101855.19;5071420;28;20490;-50
2021/03/30 01:04:27;;;;;;;4.22;1.10;;;;;;;12.79;72.65;101861.88;5071353;28;20052;-50
2021/03/30 01:06:54;;;;;;;6.95;1.40;;;;;;;12.78;72.54;101851.94;5071155;28;20045;-49
2021/03/30 01:09:32;;;;;;;1.50;0.98;;;;;;;12.77;72.69;101851.13;5071626;28;20068;-50
2021/03/30 01:12:19;;;;;;;4.90;0.88;;;;;;;12.78;72.46;101855.53;5058066;28;20124;-48
2021/03/30 01:15:03;;;;;;;4.13;1.05;;;;;;;12.78;72.61;101851.94;5071022;28;20036;-48
2021/03/30 01:18:06;;;;;;;5.60;1.05;;;;;;;12.75;72.59;101847.88;5066509;28;20068;-49
2021/03/30 01:20:54;;;;;;;3.05;1.02;;;;;;;12.75;72.75;101858.16;5071043;28;20106;-48
2021/03/30 01:23:54;;;;;;;2.88;1.00;;;;;;;12.72;72.79;101862.41;5070353;28;20118;-51
2021/03/30 01:26:45;;;;;;;6.15;0.95;;;;;;;12.75;72.64;101861.75;5067015;28;20132;-47
2021/03/30 01:29:28;;;;;;;4.32;1.20;;;;;;;12.77;72.57;101856.69;5070580;28;20449;-48
2021/03/30 01:31:58;;;;;;;6.03;1.30;;;;;;;12.74;72.43;101862.91;5071568;28;20489;-48
2021/03/30 01:34:26;;;;;;;6.53;1.45;;;;;;;12.75;72.65;101869.28;5071104;28;20052;-54
2021/03/30 01:36:56;;;;;;;6.35;1.35;;;;;;;12.77;72.71;101878.91;5071269;28;20087;-49
2021/03/30 01:39:25;;;;;;;3.33;1.27;;;;;;;12.75;72.77;101870.09;5070354;28;20136;-49
2021/03/30 01:41:52;;;;;;;3.10;0.60;;;;;;;12.74;72.61;101874.00;5071101;28;20068;-48
2021/03/30 01:44:21;;;;;;;3.38;1.98;;;;;;;12.71;72.77;101866.34;5071120;28;20126;-52
2021/03/30 01:46:49;;;;;;;1.60;0.90;;;;;;;12.69;72.88;101865.84;5071304;28;20071;-49
2021/03/30 01:49:18;;;;;;;4.72;0.98;;;;;;;12.67;73.00;101868.16;5070835;28;20094;-51
2021/03/30 01:51:45;;;;;;;2.72;1.00;;;;;;;12.69;72.71;101859.47;5071531;28;20128;-48
2021/03/30 01:54:13;;;;;;;2.80;0.90;;;;;;;12.72;72.69;101865.19;5070842;28;20041;-49
2021/03/30 01:56:41;;;;;;;2.20;1.15;;;;;;;12.73;72.64;101869.59;5070778;28;20083;-55
2021/03/30 01:59:13;;;;;;;5.47;1.13;;;;;;;12.74;72.62;101864.84;5068053;28;20589;-54
2021/03/30 02:01:40;;;;;;;6.22;1.25;;;;;;;12.72;72.42;101870.75;5068531;28;20131;-50
2021/03/30 02:04:07;;;;;;;5.07;1.00;;;;;;;12.69;72.63;101870.59;5070275;28;20127;-49
2021/03/30 02:06:36;;;;;;;4.07;0.85;;;;;;;12.67;72.80;101870.94;5070734;28;20127;-52
2021/03/30 02:09:11;;;;;;;1.92;0.93;;;;;;;12.61;72.69;101875.03;5070762;28;20049;-50
2021/03/30 02:12:13;;;;;;;2.80;1.23;;;;;;;12.59;72.92;101876.50;5071147;28;20097;-49
2021/03/30 02:14:32;;;;;;;1.67;1.15;;;;;;;12.52;72.84;101865.09;5053552;28;20442;-50
2021/03/30 02:17:39;;;;;;;3.25;1.25;;;;;;;12.46;73.17;101872.81;5069740;28;20123;-49
2021/03/30 02:20:13;;;;;;;2.70;1.20;;;;;;;12.37;73.17;101869.22;5070993;28;20555;-48
2021/03/30 02:23:03;;;;;;;1.83;1.00;;;;;;;12.32;73.34;101866.63;5070642;28;20444;-48
2021/03/30 02:25:31;;;;;;;3.38;1.13;;;;;;;12.32;73.05;101874.13;5070555;28;20175;-48
2021/03/30 02:28:09;;;;;;;4.03;1.10;;;;;;;12.24;73.25;101861.88;5072521;28;20151;-48
2021/03/30 02:30:36;;;;;;;6.20;1.73;;;;;;;12.20;73.30;101872.81;5074839;28;20036;-49
2021/03/30 02:33:05;;;;;;;5.78;1.30;;;;;;;12.19;73.36;101868.44;5073325;28;20074;-48
2021/03/30 02:35:33;;;;;;;4.45;1.83;;;;;;;12.16;73.16;101874.66;5074380;28;20095;-49
2021/03/30 02:38:02;;;;;;;3.95;1.80;;;;;;;12.11;73.25;101860.13;5073546;28;20097;-49
2021/03/30 02:40:29;;;;;;;4.88;1.40;;;;;;;12.06;73.30;101861.09;5073856;28;20084;-49
2021/03/30 02:42:58;;;;;;;2.05;1.00;;;;;;;11.99;73.11;101862.75;5073784;28;20394;-48
2021/03/30 02:45:28;;;;;;;2.35;1.25;;;;;;;11.94;73.20;101871.25;5073150;28;20501;-51
2021/03/30 02:48:06;;;;;;;7.93;1.98;;;;;;;11.89;73.32;101868.59;5073547;28;20064;-48
2021/03/30 02:50:33;;;;;;;4.63;1.40;;;;;;;11.84;73.44;101860.44;5073660;28;20056;-50
2021/03/30 02:53:02;;;;;;;4.57;1.23;;;;;;;11.75;73.78;101868.78;5073911;28;20052;-49
2021/03/30 02:55:30;;;;;;;2.72;1.23;;;;;;;11.71;73.69;101867.78;5073184;28;20064;-50
2021/03/30 02:57:57;;;;;;;5.88;1.23;;;;;;;11.75;73.70;101867.97;5071953;28;20101;-51
2021/03/30 03:00:24;;;;;;;4.88;1.63;;;;;;;11.72;73.85;101865.84;5074372;28;20127;-48
2021/03/30 03:02:52;;;;;;;3.42;1.30;;;;;;;11.67;73.90;101854.88;5074172;28;20075;-48
2021/03/30 03:05:18;;;;;;;1.80;1.10;;;;;;;11.57;74.00;101853.22;5073061;28;20063;-48
2021/03/30 03:07:45;;;;;;;4.20;1.30;;;;;;;11.47;74.26;101851.59;5072808;28;20650;-50
2021/03/30 03:10:13;;;;;;;4.65;1.20;;;;;;;11.37;74.58;101845.53;5073606;28;20044;-49
2021/03/30 03:12:42;;;;;;;3.58;1.90;;;;;;;11.29;74.94;101868.53;5073658;28;20466;-49
2021/03/30 03:15:13;;;;;;;5.30;1.23;;;;;;;11.21;74.86;101863.78;5073786;28;20474;-49
2021/03/30 03:17:41;;;;;;;6.35;1.27;;;;;;;11.16;74.85;101861.97;5073031;28;20044;-51
2021/03/30 03:20:08;;;;;;;6.78;1.60;;;;;;;11.15;75.06;101865.88;5073792;28;20048;-50
2021/03/30 03:22:36;;;;;;;7.07;2.25;;;;;;;11.14;75.12;101866.19;5073474;28;20094;-51
2021/03/30 03:25:08;;;;;;;6.38;1.58;;;;;;;11.11;75.27;101864.91;5073309;28;20123;-48
2021/03/30 03:27:35;;;;;;;6.65;1.80;;;;;;;11.09;75.22;101866.34;5072835;28;20079;-48
2021/03/30 03:30:10;;;;;;;5.68;1.40;;;;;;;11.02;75.85;101866.81;5073812;28;20402;-50
2021/03/30 03:32:37;;;;;;;7.28;1.70;;;;;;;11.01;75.40;101857.66;5073069;28;20072;-51
2021/03/30 03:35:04;;;;;;;2.10;1.38;;;;;;;10.96;75.46;101852.28;5073566;28;20105;-48
2021/03/30 03:37:31;;;;;;;3.50;2.15;;;;;;;10.96;75.44;101868.13;5071514;28;20107;-49
2021/03/30 03:39:57;;;;;;;8.15;2.42;;;;;;;10.92;75.61;101861.56;5073581;28;20040;-53
2021/03/30 03:42:24;;;;;;;3.38;1.60;;;;;;;10.88;75.63;101866.13;5071981;28;20045;-48
2021/03/30 03:44:50;;;;;;;4.47;1.42;;;;;;;10.80;75.73;101867.69;5073616;28;20494;-49
2021/03/30 03:47:21;;;;;;;7.47;2.05;;;;;;;10.77;76.00;101871.13;5072612;28;20064;-49
2021/03/30 03:49:48;;;;;;;3.95;1.13;;;;;;;10.81;75.79;101876.84;5071862;28;20123;-50
2021/03/30 03:52:16;;;;;;;3.85;1.20;;;;;;;10.81;75.69;101872.13;5061108;28;20865;-50
2021/03/30 03:54:44;;;;;;;5.85;1.98;;;;;;;10.85;75.55;101872.31;5073245;28;20048;-51
2021/03/30 03:57:24;;;;;;;3.67;1.05;;;;;;;10.84;75.47;101870.66;5071782;28;20162;-50
2021/03/30 03:59:50;;;;;;;2.72;1.15;;;;;;;10.81;75.43;101879.59;5072704;28;20044;-49
2021/03/30 04:02:22;;;;;;;4.78;1.63;;;;;;;10.80;75.61;101884.31;5072409;28;20052;-49
2021/03/30 04:05:01;;;;;;;5.38;1.40;;;;;;;10.82;75.61;101881.25;5072920;28;20124;-50
2021/03/30 04:07:37;;;;;;;2.85;1.10;;;;;;;10.82;75.63;101872.94;5072089;28;20532;-51
2021/03/30 04:10:05;;;;;;;6.75;2.70;;;;;;;10.85;75.36;101883.38;5071212;28;20049;-49
2021/03/30 04:12:34;;;;;;;8.60;1.77;;;;;;;10.87;75.38;101881.09;5069932;28;20439;-48
2021/03/30 04:15:00;;;;;;;6.03;2.10;;;;;;;10.84;75.40;101878.97;5071736;28;20052;-50
2021/03/30 04:17:27;;;;;;;2.00;1.02;;;;;;;10.83;75.32;101886.44;5071972;28;20040;-49
2021/03/30 04:19:53;;;;;;;3.53;1.23;;;;;;;10.86;75.35;101879.47;5072403;28;20106;-49
2021/03/30 04:22:19;;;;;;;4.25;1.10;;;;;;;10.92;75.03;101875.41;5072182;28;20390;-49
2021/03/30 04:24:46;;;;;;;4.05;1.00;;;;;;;10.93;74.96;101882.59;5072273;28;20123;-49
2021/03/30 04:27:13;;;;;;;7.13;1.38;;;;;;;10.95;75.06;101877.56;5071598;28;20123;-48
2021/03/30 04:29:41;;;;;;;4.30;1.20;;;;;;;10.99;74.91;101878.53;5072284;28;20131;-51
2021/03/30 04:32:09;;;;;;;2.00;1.02;;;;;;;10.97;74.88;101880.81;5071877;28;20040;-50
2021/03/30 04:34:36;;;;;;;2.53;1.20;;;;;;;10.96;74.85;101879.19;5072106;28;20049;-48
2021/03/30 04:37:03;;;;;;;6.47;1.15;;;;;;;10.95;74.71;101883.09;5071052;28;20118;-48
2021/03/30 04:39:29;;;;;;;4.90;1.10;;;;;;;10.97;74.84;101892.72;5072486;28;20562;-51
2021/03/30 04:41:56;;;;;;;2.53;1.30;;;;;;;10.98;74.72;101899.91;5070895;28;20123;-53
2021/03/30 04:44:22;;;;;;;4.47;1.20;;;;;;;10.99;74.66;101895.97;5071991;28;20115;-51
2021/03/30 04:46:48;;;;;;;2.40;0.85;;;;;;;11.04;74.61;101908.06;5071432;28;20056;-48
2021/03/30 04:49:15;;;;;;;1.65;0.77;;;;;;;11.00;74.41;101919.78;5071282;28;20048;-51
2021/03/30 04:51:41;;;;;;;3.20;0.68;;;;;;;10.99;74.58;101917.31;5071641;28;20106;-49
2021/03/30 04:54:07;;;;;;;3.08;0.98;;;;;;;10.99;74.49;101917.31;5071315;28;20457;-48
2021/03/30 04:56:36;;;;;;;6.93;0.93;;;;;;;11.00;74.71;101913.44;5071554;28;20086;-49
2021/03/30 04:59:04;;;;;;;2.60;1.00;;;;;;;10.98;74.31;101907.41;5051805;28;20056;-48
2021/03/30 05:01:30;;;;;;;2.35;0.80;;;;;;;10.93;74.39;101919.41;5051288;28;20087;-55
2021/03/30 05:03:56;;;;;;;4.50;1.13;;;;;;;10.93;74.30;101915.84;5071343;28;20040;-48
2021/03/30 05:06:23;;;;;;;6.30;1.77;;;;;;;10.90;74.37;101913.72;5071089;28;20045;-53
2021/03/30 05:08:49;;;;;;;3.35;1.42;;;;;;;10.89;74.44;101917.59;5070396;28;20080;-48
2021/03/30 05:11:15;;;;;;;3.03;1.75;;;;;;;10.85;74.53;101911.09;5071704;28;20119;-49
2021/03/30 05:13:41;;;;;;;5.03;1.23;;;;;;;10.86;74.32;101926.56;5070647;28;20048;-53
2021/03/30 05:16:08;;;;;;;4.50;0.50;;;;;;;10.84;74.25;101928.84;5071684;28;20136;-49
2021/03/30 05:18:34;;;;;;;2.38;0.75;;;;;;;10.82;74.29;101926.41;5070937;28;20071;-48
2021/03/30 05:21:01;;;;;;;3.42;0.80;;;;;;;10.79;74.41;101940.06;5080264;28;20044;-48
2021/03/30 05:23:27;;;;;;;4.05;1.50;;;;;;;10.74;74.55;101948.50;5074537;28;20040;-51
2021/03/30 05:25:53;;;;;;;1.08;0.70;;;;;;;10.70;74.58;101937.22;5067565;28;20140;-49
2021/03/30 05:28:19;;;;;;;6.05;1.15;;;;;;;10.72;74.58;101951.56;5064933;28;20060;-50
2021/03/30 05:30:46;;;;;;;2.67;0.80;;;;;;;10.72;74.50;101945.25;5070360;28;20113;-50
2021/03/30 05:33:13;;;;;;;3.10;1.08;;;;;;;10.72;74.67;101953.53;5071187;28;20434;-49
2021/03/30 05:35:39;;;;;;;5.28;1.20;;;;;;;10.75;74.38;101945.41;5070800;28;20044;-51
2021/03/30 05:38:06;;;;;;;3.20;0.63;;;;;;;10.78;74.54;101949.47;5064853;28;20480;-48
2021/03/30 05:40:32;;;;;;;1.70;0.90;;;;;;;10.82;74.48;101944.97;5070477;28;20139;-49
2021/03/30 05:42:58;;;;;;;2.22;1.48;;;;;;;10.85;74.40;101953.47;5070921;28;20067;-51
2021/03/30 05:45:27;;;;;;;4.75;0.90;;;;;;;10.84;74.28;101946.28;5070872;28;20056;-51
2021/03/30 05:47:54;;;;;;;2.75;1.00;;;;;;;10.85;74.34;101949.88;5069598;28;20044;-51
2021/03/30 05:50:22;;;;;;;5.13;2.25;;;;;;;10.88;74.11;101954.78;5071585;28;20445;-49
2021/03/30 05:55:27;;;;;;;3.65;0.80;;;;;;;10.88;74.30;101947.25;5070857;28;20036;-51
2021/03/30 05:57:59;;;;;;;7.25;1.98;;;;;;;10.91;74.35;101941.09;5070230;28;20489;-49
2021/03/30 06:00:37;;;;;;;3.13;0.70;;;;;;;10.92;74.43;101939.97;5071009;28;20048;-49
2021/03/30 06:03:06;;;;;;;0.93;0.85;;;;;;;10.94;74.33;101937.69;5074286;28;20036;-48
2021/03/30 06:05:33;;;;;;;1.60;0.82;;;;;;;10.98;74.08;101940.66;5075284;28;20106;-49
2021/03/30 06:08:01;;;;;;;1.35;0.70;;;;;;;10.97;74.19;101941.78;5073597;28;20569;-49
2021/03/30 06:10:29;;;;;;;2.92;1.00;;;;;;;10.97;74.45;101948.13;5075020;28;20036;-50
2021/03/30 06:12:59;;;;;;;2.05;0.77;;;;;;;10.97;74.17;101941.78;5074413;28;20401;-50
2021/03/30 06:15:31;;;;;;;4.10;0.75;;;;;;;10.97;74.36;101942.59;5074421;28;20072;-47
2021/03/30 06:17:59;;;;;;;3.22;0.90;;;;;;;10.97;74.29;101937.06;5074230;28;20086;-50
2021/03/30 06:20:28;;;;;;;1.10;0.73;;;;;;;10.98;74.38;101951.72;5075206;28;20040;-48
2021/03/30 06:22:59;;;;;;;2.50;1.40;;;;;;;10.97;74.23;101942.59;5072924;28;20040;-48
2021/03/30 06:25:49;;;;;;;3.55;0.88;;;;;;;10.95;74.32;101944.06;5074486;28;20083;-49
2021/03/30 06:28:18;;;;;;;3.70;1.70;;;;;;;10.90;74.27;101953.31;5067476;28;20041;-51
2021/03/30 06:30:58;;;;;;;4.93;1.00;;;;;;;10.91;74.35;101954.94;5074329;28;20110;-49
2021/03/30 06:33:26;;;;;;;2.25;0.80;;;;;;;10.95;74.21;101957.91;5073519;28;20071;-50
2021/03/30 06:36:11;;;;;;;3.63;0.77;;;;;;;10.90;74.14;101963.59;5074060;28;20056;-48
2021/03/30 06:38:56;;;;;;;2.97;1.00;;;;;;;10.89;74.30;101962.75;5074110;28;20757;-48
2021/03/30 06:47:11;;;;;;;4.50;1.00;;;;;;;10.90;73.92;101969.94;5073723;28;20098;-51
2021/03/30 06:49:39;;;;;;;1.42;0.77;;;;;;;10.90;74.01;101963.59;5055760;28;20482;-48
2021/03/30 06:52:14;;;;;;;1.23;0.65;;;;;;;10.82;73.92;101967.94;5070483;28;20094;-48
2021/03/30 06:55:00;;;;;;;3.28;0.90;;;;;;;10.78;74.31;101964.16;5074161;28;20080;-48
2021/03/30 06:57:34;;;;;;;2.55;0.60;;;;;;;10.80;73.87;101974.94;5073474;28;20040;-49
2021/03/30 07:00:07;;;;;;;1.40;0.77;;;;;;;10.79;73.99;101973.28;5073949;28;20044;-49
2021/03/30 07:02:39;;;;;;;2.55;1.00;;;;;;;10.79;73.95;101973.28;5073498;28;20707;-49
2021/03/30 07:05:06;;;;;;;3.65;0.80;;;;;;;10.84;74.01;101975.94;5072985;28;20123;-49
2021/03/30 07:07:33;;;;;;;2.80;0.63;;;;;;;10.86;73.95;101973.66;5072390;28;20131;-50
2021/03/30 07:10:00;;;;;;;2.33;0.98;;;;;;;10.86;73.85;101973.66;5072713;28;20040;-49
2021/03/30 07:12:27;;;;;;;2.03;0.60;;;;;;;10.86;73.82;101984.72;5073095;28;20462;-50
2021/03/30 07:14:53;;;;;;;2.55;0.85;;;;;;;10.87;73.78;101980.84;5072971;28;20040;-50
2021/03/30 07:17:34;;;;;;;2.08;0.70;;;;;;;10.86;73.66;101979.19;5073915;28;20130;-48
2021/03/30 07:20:04;;;;;;;1.40;0.85;;;;;;;10.89;73.72;101973.84;5073599;28;20052;-50
2021/03/30 07:22:33;;;;;;;4.50;0.60;;;;;;;10.90;73.53;101977.44;5072208;28;20918;-48
2021/03/30 07:25:04;;;;;;;3.60;0.90;;;;;;;10.93;73.75;101985.13;5072272;28;20037;-49
2021/03/30 07:27:51;;;;;;;3.45;1.63;;;;;;;10.96;73.71;101984.50;5072872;28;20083;-49
2021/03/30 07:30:18;;;;;;;1.33;0.50;;;;;;;11.00;73.62;101991.84;5053636;28;20083;-48
2021/03/30 07:33:10;;;;;;;2.50;0.73;;;;;;;11.06;73.42;101994.47;5053470;28;20115;-50
2021/03/30 07:35:38;;;;;;;2.92;1.10;;;;;;;11.14;73.42;101986.22;5054208;28;20127;-49
2021/03/30 07:38:20;;;;;;;3.72;0.90;;;;;;;11.20;73.13;101986.88;5064465;28;20439;-48
2021/03/30 07:40:47;;;;;;;;;;;;;;;11.21;73.01;101982.97;5044326;28;20567;-51
2021/03/30 07:43:23;;;;;;;1.55;0.70;;;;;;;11.25;72.96;101983.97;5047912;28;19972;-49
2021/03/30 07:45:53;;;;;;;4.03;1.23;;;;;;;11.28;73.00;101981.34;5063507;28;20048;-50
2021/03/30 07:48:23;;;;;;;2.60;1.15;;;;;;;11.31;72.86;101986.28;5069567;28;20509;-48
2021/03/30 07:51:04;;;;;;;4.05;1.00;;;;;;;11.31;72.64;101980.72;5069973;28;20048;-50
2021/03/30 07:53:47;;;;;;;1.20;0.80;;;;;;;11.34;72.41;101993.94;5071674;28;20397;-48
2021/03/30 07:56:28;;;;;;;1.10;1.00;;;;;;;11.34;72.76;101996.72;5062748;28;20048;-49
2021/03/30 07:58:57;;;;;;;6.32;1.15;;;;;;;11.39;72.75;101993.81;5067004;28;20106;-49
2021/03/30 08:01:25;;;;;;;3.58;0.85;;;;;;;11.39;72.75;101993.81;5044220;28;20080;-52
2021/03/30 08:03:53;;;;;;;0.98;0.68;;;;;;;11.42;72.74;101998.72;5068031;28;20040;-47
2021/03/30 08:06:48;;;;;;;1.90;0.60;;;;;;;11.43;72.55;101999.53;5069096;28;20040;-53
2021/03/30 08:09:18;;;;;;;7.72;1.38;;;;;;;11.48;72.51;102003.00;5063472;28;20690;-51
2021/03/30 08:11:53;;;;;;;1.80;0.68;;;;;;;11.53;72.44;102005.63;5051569;28;20053;-52
2021/03/30 08:14:21;;;;;;;3.42;1.20;;;;;;;11.59;72.43;102012.66;5073654;28;20047;-51
2021/03/30 08:17:08;;;;;;;1.42;0.55;;;;;;;11.61;72.08;102010.38;5047696;28;20103;-49
2021/03/30 08:19:34;;;;;;;3.15;0.77;;;;;;;11.66;72.17;102005.81;5063554;28;20048;-48
2021/03/30 08:22:04;;;;;;;2.03;0.70;;;;;;;11.66;71.85;102011.34;5063803;28;20040;-50
2021/03/30 08:24:46;;;;;;;2.88;1.10;;;;;;;11.69;71.69;102013.53;5062228;28;20494;-50
2021/03/30 08:27:30;;;;;;;4.40;0.70;;;;;;;11.72;71.61;102010.09;5066960;28;20040;-51
2021/03/30 08:30:12;;;;;;;3.40;0.80;;;;;;;11.75;71.66;102017.78;5065304;28;20056;-49
2021/03/30 08:32:44;;;;;;;2.90;1.77;;;;;;;11.83;71.77;102023.38;5050105;28;20045;-53
2021/03/30 08:35:27;;;;;;;1.55;0.80;;;;;;;11.97;71.85;102023.22;5062184;28;20041;-55
2021/03/30 08:37:54;;;;;;;1.45;0.80;;;;;;;12.06;71.67;102021.28;5057432;28;20049;-49
2021/03/30 08:40:36;;;;;;;2.05;0.70;;;;;;;12.10;70.55;102028.63;5067966;28;20138;-52
2021/03/30 08:43:14;;;;;;;2.80;0.75;;;;;;;12.12;70.93;102031.09;5057212;28;20063;-54
2021/03/30 08:45:55;;;;;;;3.65;1.00;;;;;;;12.21;71.33;102026.34;5056976;28;20076;-54
2021/03/30 08:48:34;;;;;;;2.08;0.93;;;;;;;12.29;70.79;102028.31;5068813;28;20033;-48
2021/03/30 08:51:07;;;;;;;9.38;0.80;;;;;;;12.37;71.95;102027.50;5068842;28;20129;-52
2021/03/30 08:53:34;;;;;;;0.40;0.40;;;;;;;12.52;72.06;102024.25;5069314;28;20114;-51
2021/03/30 08:56:06;;;;;;;4.78;0.60;;;;;;;12.71;72.09;102033.06;5069287;28;20140;-49
2021/03/30 08:58:36;;;;;;;2.85;0.75;;;;;;;12.89;72.45;102031.09;5068585;28;20041;-51
2021/03/30 09:01:06;;;;;;;1.60;0.50;;;;;;;13.10;72.73;102028.47;5064556;28;20425;-53
2021/03/30 09:03:33;;;;;;;1.83;0.70;;;;;;;13.38;73.20;102036.06;5067065;28;20048;-53
2021/03/30 09:05:59;;;;;;;2.58;0.50;;;;;;;13.65;72.91;102031.19;5053508;28;20459;-57
2021/03/30 09:08:36;;;;;;;3.65;0.40;;;;;;;14.02;71.12;102027.56;5035870;28;20044;-54
2021/03/30 09:11:27;;;;;;;2.15;0.52;;;;;;;14.59;70.25;102020.25;5082624;28;20047;-55
2021/03/30 09:13:59;;;;;;;0.85;0.45;;;;;;;15.23;69.49;102026.16;5066528;28;20049;-51
2021/03/30 09:16:25;;;;;;;1.33;0.45;;;;;;;15.82;68.54;102017.41;5067222;28;20051;-51
2021/03/30 09:18:53;;;;;;;2.00;0.82;;;;;;;16.48;66.43;102019.84;5068210;28;20135;-49
2021/03/30 09:21:26;;;;;;;1.27;0.52;;;;;;;17.01;63.95;102017.44;5067057;28;20595;-52
2021/03/30 09:23:56;;;;;;;8.35;1.08;;;;;;;17.43;61.97;102022.53;5068893;28;20048;-52
2021/03/30 09:26:30;;;;;;;2.72;1.17;;;;;;;17.84;60.25;102021.19;5068103;28;20048;-53
2021/03/30 09:28:57;;;;;;;2.15;0.68;;;;;;;18.20;58.74;102006.81;5067908;28;20462;-50
2021/03/30 09:31:23;;;;;;;5.68;0.93;;;;;;;18.42;57.45;102020.13;5068198;28;20045;-49
2021/03/30 09:33:50;;;;;;;9.80;1.95;;;;;;;18.69;56.42;102007.91;5066791;28;20048;-48
2021/03/30 09:36:16;;;;;;;7.10;1.73;;;;;;;18.93;55.32;102029.22;5062521;28;20045;-50
2021/03/30 09:38:54;;;;;;;2.45;0.70;;;;;;;19.07;53.07;102018.28;5066431;28;20127;-53
2021/03/30 09:41:40;;;;;;;4.05;0.98;;;;;;;19.30;53.17;102015.50;5053713;28;20048;-48
2021/03/30 09:44:08;;;;;;;4.15;1.05;;;;;;;19.42;53.69;102012.53;5061727;28;20056;-50
2021/03/30 09:46:42;;;;;;;3.08;1.35;;;;;;;19.54;53.26;102026.38;5047967;28;20053;-53
2021/03/30 09:49:10;;;;;;;3.00;0.80;;;;;;;19.61;52.75;102018.09;5067458;28;20124;-56
2021/03/30 09:51:38;;;;;;;2.55;0.60;;;;;;;19.72;52.15;102021.88;5055360;28;20123;-50
2021/03/30 09:54:29;;;;;;;3.33;1.10;;;;;;;19.84;50.24;102015.22;5068176;28;20127;-49
2021/03/30 09:57:21;;;;;;;3.08;0.60;;;;;;;19.79;48.66;102013.56;5067390;28;20090;-48
2021/03/30 09:59:49;;;;;;;4.95;0.90;;;;;;;19.72;50.58;102016.28;5068099;28;20186;-50
2021/03/30 10:02:21;;;;;;;3.38;0.60;;;;;;;19.69;49.73;102011.41;5068192;28;20040;-47
2021/03/30 10:04:56;;;;;;;3.80;1.08;;;;;;;19.84;49.37;102010.44;5067864;28;20099;-52
2021/03/30 10:07:24;;;;;;;3.03;0.82;;;;;;;19.99;49.84;102009.44;5069029;28;20135;-52
2021/03/30 10:10:07;;;;;;;3.35;0.57;;;;;;;20.08;48.96;102011.19;5067808;28;20083;-49
2021/03/30 10:12:54;;;;;;;3.97;0.80;;;;;;;20.14;47.12;102009.66;5065502;28;20048;-49
2021/03/30 10:15:39;;;;;;;4.07;0.90;;;;;;;20.25;46.80;102007.84;5066931;28;20049;-51
2021/03/30 10:18:07;;;;;;;2.22;0.82;;;;;;;20.35;48.27;102004.38;5067291;28;20063;-51
2021/03/30 10:20:44;;;;;;;2.00;0.70;;;;;;;20.44;47.06;102010.50;5063921;28;20052;-52
2021/03/30 10:23:34;;;;;;;4.88;0.70;;;;;;;20.51;46.11;102005.00;5047415;28;20556;-50
2021/03/30 10:26:22;;;;;;;1.92;0.75;;;;;;;20.52;47.06;101998.97;5048681;28;20052;-48
2021/03/30 10:28:55;;;;;;;2.20;0.85;;;;;;;20.59;46.48;101990.63;5054316;28;20114;-50
2021/03/30 10:31:36;;;;;;;1.92;1.13;;;;;;;20.77;46.06;101979.56;5066997;28;20063;-52
2021/03/30 10:34:26;;;;;;;2.05;0.68;;;;;;;20.79;45.64;101974.38;5061951;28;20048;-51
2021/03/30 10:36:54;;;;;;;2.33;1.00;;;;;;;20.78;46.54;101972.75;5047105;28;20064;-49
2021/03/30 10:39:30;;;;;;;2.00;0.75;;;;;;;20.66;45.79;101964.56;5047410;28;20087;-51
2021/03/30 10:42:02;;;;;;;1.92;0.93;;;;;;;20.58;46.10;101969.31;5059240;28;20052;-53
2021/03/30 10:44:37;;;;;;;;;;;;;;;20.60;44.61;101968.91;5067492;28;20470;-55
2021/03/30 10:47:34;;;;;;;2.30;1.02;;;;;;;20.51;45.44;101962.78;5066226;28;19924;-56
2021/03/30 10:50:04;;;;;;;2.92;1.52;;;;;;;20.30;46.15;101960.53;5070450;28;20125;-54
2021/03/30 10:52:35;;;;;;;8.20;2.28;;;;;;;20.14;46.21;101959.06;5071599;28;20048;-50
2021/03/30 10:55:09;;;;;;;5.07;1.27;;;;;;;19.94;46.69;101959.19;5070744;28;20110;-55
2021/03/30 10:57:38;;;;;;;5.80;1.63;;;;;;;19.75;47.21;101962.09;5064154;28;20071;-50
2021/03/30 11:00:08;;;;;;;7.32;1.70;;;;;;;19.54;47.16;101970.19;5062716;28;20052;-51
2021/03/30 11:02:35;;;;;;;4.57;2.05;;;;;;;19.56;47.70;101965.03;5070710;28;20086;-51
2021/03/30 11:05:05;;;;;;;4.72;1.27;;;;;;;19.53;47.98;101962.97;5066103;28;20755;-50
2021/03/30 11:07:32;;;;;;;2.88;1.13;;;;;;;19.24;48.39;101972.06;5070202;28;20040;-52
2021/03/30 11:09:58;;;;;;;2.70;1.27;;;;;;;18.85;49.20;101963.72;5067715;28;20068;-53
2021/03/30 11:12:24;;;;;;;7.35;1.95;;;;;;;18.64;49.81;101965.31;5053675;28;20041;-52
2021/03/30 11:14:51;;;;;;;5.03;1.15;;;;;;;18.43;50.44;101962.84;5071245;28;20080;-48
2021/03/30 11:17:17;;;;;;;4.03;1.30;;;;;;;18.10;51.05;101965.34;5070571;28;20036;-50
2021/03/30 11:19:43;;;;;;;4.13;1.23;;;;;;;17.91;51.53;101960.53;5070472;28;20071;-52
2021/03/30 11:22:10;;;;;;;4.38;1.27;;;;;;;17.76;51.66;101966.16;5071072;28;20077;-52
2021/03/30 11:24:40;;;;;;;6.20;1.20;;;;;;;17.53;52.10;101964.03;5071252;28;20101;-48
2021/03/30 11:27:07;;;;;;;4.03;1.48;;;;;;;17.40;52.55;101956.06;5069839;28;20040;-51
2021/03/30 11:35:10;;;;;;;2.53;1.08;;;;;;;16.91;53.77;101964.00;5062131;28;20510;-50
2021/03/30 11:40:15;;;;;;;3.00;1.10;;;;;;;16.61;54.30;101965.53;5070328;28;20037;-53
2021/03/30 11:42:45;;;;;;;3.03;0.98;;;;;;;16.50;54.48;101964.38;5064544;28;20134;-56
2021/03/30 11:45:12;;;;;;;4.53;1.30;;;;;;;16.42;55.02;101966.97;5059189;28;20389;-51
2021/03/30 11:47:38;;;;;;;2.97;1.05;;;;;;;16.36;55.10;101967.59;5068318;28;20436;-54
2021/03/30 11:50:06;;;;;;;2.42;1.10;;;;;;;16.26;55.02;101963.31;5071108;28;20040;-53
2021/03/30 11:52:34;;;;;;;3.95;1.20;;;;;;;16.17;55.66;101965.44;5071144;28;20072;-53
2021/03/30 11:55:01;;;;;;;4.45;1.35;;;;;;;16.12;55.96;101968.50;5069064;28;20045;-53
2021/03/30 11:57:27;;;;;;;4.47;2.30;;;;;;;16.06;56.28;101969.91;5069746;28;20442;-53
2021/03/30 11:59:53;;;;;;;5.88;1.60;;;;;;;16.06;56.66;101964.31;5068971;28;20156;-50
2021/03/30 12:02:20;;;;;;;4.15;1.50;;;;;;;16.08;56.84;101966.72;5070515;28;20047;-53